Sioux Lookout, Canada
Current Conditions -  °F | °C
As of 8:00 PM on Tuesday 21 Oct 2014 (Local Time) from CYXL Reporting Station
Clear Clear  
Wind Chill: 34°   Ceiling: Unl
Heat Index: 41°   Visibility: 15mi
Dew Point: 34°   Wind: 12mph
Humidity: 76%   Direction: 160°SSE
Pressure: 30.1"   Gusts: 20mph
Location:  50.1°N, 91.92°W
Report Text: CYXL 220100Z 16010G17KT 15SM SKC 05/01 A3010 RMK SLP210
Loading
Personal Weather Stations






























Interactive Weather Map
Tropical Storm Tracking
New forecast layout! Learn more

10-Day Weather Forecast

Advertisements
Track Severe Weather on mobile